Time;durP1;ratioP1;P1;durP2;ratioP2;P2;SDS_P1;SDS_P2;PMS_P1;PMS_P2;Temp;Humidity;BMP_temperature;BMP_pressure;BME280_temperature;BME280_humidity;BME280_pressure;Samples;Min_cycle;Max_cycle;Signal;HPM_P1;HPM_P2
2021/12/12 00:01:05;;;;;;;86.80;21.73;;;;;;;3.50;100.00;102080.34;4956907;28;20433;-92
2021/12/12 00:07:11;;;;;;;72.05;18.13;;;;;;;3.54;100.00;102090.72;4852647;29;20522;-92
2021/12/12 00:14:20;;;;;;;;;;;;;;;;;;;;;
2021/12/12 00:17:03;;;;;;;78.78;17.58;;;;;;;3.44;100.00;102077.63;4886082;29;20047;-92
2021/12/12 00:20:18;;;;;;;;;;;;;;;;;;;;;
2021/12/12 00:26:28;;;;;;;72.72;17.13;;;;;;;3.51;100.00;102054.75;4835828;29;20467;-92
2021/12/12 00:36:20;;;;;;;;;;;;;;;;;;;;;
2021/12/12 00:39:41;;;;;;;66.22;16.90;;;;;;;3.72;100.00;102061.22;4884371;29;20071;-93
2021/12/12 01:03:00;;;;;;;64.28;14.38;;;;;;;3.83;100.00;102032.44;4844424;29;20149;-93
2021/12/12 01:09:26;;;;;;;;;;;;;;;;;;;;;
2021/12/12 01:15:43;;;;;;;76.57;15.45;;;;;;;3.96;100.00;102042.13;4893013;29;20042;-93
2021/12/12 01:19:11;;;;;;;;;;;;;;;;;;;;;
2021/12/12 01:26:06;;;;;;;60.88;13.98;;;;;;;3.85;100.00;102014.53;4860874;29;20044;-92
2021/12/12 01:29:04;;;;;;;77.28;15.48;;;;;;;3.91;100.00;102037.75;4832668;29;20034;-92
2021/12/12 01:35:52;;;;;;;62.15;14.70;;;;;;;3.87;100.00;102024.00;4815098;29;20071;-93
2021/12/12 01:46:10;;;;;;;60.92;15.77;;;;;;;3.95;100.00;102040.44;4777721;29;20211;-92
2021/12/12 01:49:29;;;;;;;;;;;;;;;;;;;;;
2021/12/12 01:52:32;;;;;;;73.30;16.85;;;;;;;3.92;100.00;102035.22;4833379;28;20535;-94
2021/12/12 01:56:11;;;;;;;60.33;14.82;;;;;;;3.96;100.00;102043.84;5011794;28;20041;-96
2021/12/12 02:02:39;;;;;;;63.30;15.35;;;;;;;3.92;100.00;102036.91;4937071;28;20578;-95
2021/12/12 02:08:14;;;;;;;65.47;15.55;;;;;;;3.94;100.00;102027.56;4930813;29;20560;-94
2021/12/12 02:11:15;;;;;;;64.40;16.00;;;;;;;3.99;100.00;102033.66;4914511;29;20047;-93
2021/12/12 02:14:18;;;;;;;;;;;;;;;;;;;;;
2021/12/12 02:21:04;;;;;;;72.78;15.02;;;;;;;3.97;100.00;102033.63;5011836;28;20508;-91
2021/12/12 02:39:57;;;;;;;;;;;;;;;;;;;;;
2021/12/12 02:43:13;;;;;;;;;;;;;;;;;;;;;
2021/12/12 02:46:03;;;;;;;65.30;14.75;;;;;;;4.00;100.00;101996.03;4892218;29;20052;-92
2021/12/12 02:49:21;;;;;;;;;;;;;;;;;;;;;
2021/12/12 02:52:11;;;;;;;71.18;15.18;;;;;;;4.11;100.00;102000.56;4889083;29;20552;-92
2021/12/12 02:55:00;;;;;;;72.70;13.77;;;;;;;4.03;100.00;101985.84;4890131;29;20324;-92
2021/12/12 02:58:05;;;;;;;69.55;15.38;;;;;;;4.14;100.00;101997.22;4988188;28;20461;-91
2021/12/12 03:07:12;;;;;;;;;;;;;;;;;;;;;
2021/12/12 03:13:03;;;;;;;62.15;13.23;;;;;;;4.16;100.00;101987.84;4980792;28;20038;-92
2021/12/12 03:16:02;;;;;;;59.85;13.85;;;;;;;4.14;100.00;101981.81;5034602;28;20029;-92
2021/12/12 03:19:21;;;;;;;;;;;;;;;;;;;;;
2021/12/12 03:22:49;;;;;;;57.85;13.30;;;;;;;4.14;100.00;101974.97;5028285;28;20036;-92
2021/12/12 03:26:01;;;;;;;56.45;12.65;;;;;;;4.21;100.00;101981.09;5032629;28;20037;-91
2021/12/12 03:28:54;;;;;;;58.22;13.27;;;;;;;4.28;100.00;101977.84;4937099;28;20043;-93
2021/12/12 03:32:04;;;;;;;59.25;12.95;;;;;;;4.30;100.00;101976.13;4956621;28;20047;-92
2021/12/12 03:38:03;;;;;;;;;;;;;;;4.35;100.00;101959.16;4920477;29;20492;-94
2021/12/12 03:41:03;;;;;;;65.07;13.75;;;;;;;4.31;100.00;101944.50;5016684;28;19923;-93
2021/12/12 03:43:49;;;;;;;72.13;14.60;;;;;;;4.28;100.00;101932.50;5023838;28;20037;-95
2021/12/12 03:46:46;;;;;;;58.92;13.70;;;;;;;4.37;100.00;101940.34;5001144;28;20044;-94
2021/12/12 03:49:15;;;;;;;64.72;14.18;;;;;;;4.44;100.00;101953.31;5003941;28;20041;-94
2021/12/12 03:52:14;;;;;;;65.28;14.40;;;;;;;4.36;100.00;101943.78;4967609;28;20031;-93
2021/12/12 03:55:45;;;;;;;69.95;15.23;;;;;;;4.40;100.00;101946.41;4985363;28;20113;-94
2021/12/12 03:58:15;;;;;;;64.40;14.70;;;;;;;4.45;100.00;101949.91;4911565;29;20102;-94
2021/12/12 04:01:25;;;;;;;67.47;14.75;;;;;;;4.51;100.00;101962.84;4920932;29;20043;-92
2021/12/12 04:08:07;;;;;;;71.70;15.05;;;;;;;4.56;100.00;101954.44;4893276;29;20134;-94
2021/12/12 04:11:03;;;;;;;59.55;15.82;;;;;;;4.53;100.00;101940.66;4945869;28;20197;-93
2021/12/12 04:14:16;;;;;;;57.80;14.00;;;;;;;4.49;100.00;101942.31;4952989;28;20041;-93
2021/12/12 04:17:04;;;;;;;64.45;15.73;;;;;;;4.64;100.00;101959.72;4933196;29;20039;-94
2021/12/12 04:30:04;;;;;;;69.05;16.75;;;;;;;4.62;100.00;101953.69;5057973;28;20044;-94
2021/12/12 04:32:42;;;;;;;78.47;17.58;;;;;;;4.65;100.00;101954.56;4951462;28;20046;-93
2021/12/12 04:36:03;;;;;;;75.05;17.52;;;;;;;4.78;100.00;101970.25;4937256;28;20051;-95
2021/12/12 04:42:52;;;;;;;66.90;17.33;;;;;;;4.80;100.00;101969.41;4907652;29;20525;-94
2021/12/12 04:59:38;;;;;;;;;;;;;;;;;;;;;
2021/12/12 05:02:48;;;;;;;72.40;18.02;;;;;;;4.81;100.00;101957.44;5053276;28;20574;-94
2021/12/12 05:13:01;;;;;;;66.95;17.33;;;;;;;4.93;100.00;101981.63;4968450;28;20516;-93
2021/12/12 05:23:04;;;;;;;74.88;19.85;;;;;;;4.98;100.00;102000.56;5028647;28;20029;-94
2021/12/12 05:33:31;;;;;;;69.97;18.52;;;;;;;4.94;100.00;101985.06;4903608;29;20157;-92
2021/12/12 05:39:28;;;;;;;60.65;17.40;;;;;;;5.03;100.00;101998.09;4916876;29;20035;-92
2021/12/12 05:42:11;;;;;;;69.65;17.10;;;;;;;5.05;100.00;102001.56;5019605;28;20060;-93
2021/12/12 05:52:21;;;;;;;69.68;18.73;;;;;;;4.99;100.00;101984.28;4992813;28;20027;-92
2021/12/12 05:55:13;;;;;;;;;;;;;;;;;;;;;
2021/12/12 05:58:14;;;;;;;66.68;18.08;;;;;;;5.10;100.00;101990.50;5029790;28;20128;-90
2021/12/12 06:01:57;;;;;;;60.95;18.25;;;;;;;5.07;100.00;101985.31;5017911;28;20045;-91
2021/12/12 06:05:11;;;;;;;;;;;;;;;;;;;;;
2021/12/12 06:08:03;;;;;;;63.03;18.48;;;;;;;5.12;100.00;101987.94;4891589;29;21103;-91
2021/12/12 06:11:00;;;;;;;;;;;;;;;;;;;;;
2021/12/12 06:13:46;;;;;;;61.47;15.57;;;;;;;5.11;100.00;101974.25;4937464;28;20043;-91
2021/12/12 06:20:00;;;;;;;62.45;16.02;;;;;;;5.15;100.00;101998.28;4996513;28;20041;-91
2021/12/12 06:23:01;;;;;;;66.13;17.25;;;;;;;5.25;100.00;102007.03;5018951;28;20037;-91
2021/12/12 06:29:12;;;;;;;56.30;15.75;;;;;;;5.28;100.00;102005.34;5017410;28;20037;-92
2021/12/12 06:35:30;;;;;;;;;;;;;;;;;;;;;
2021/12/12 06:38:07;;;;;;;52.78;13.50;;;;;;;5.30;100.00;102003.69;4925843;29;20053;-92
2021/12/12 06:40:47;;;;;;;55.47;15.10;;;;;;;5.39;100.00;102008.13;4959555;28;20023;-90
2021/12/12 06:43:47;;;;;;;61.67;14.63;;;;;;;5.41;100.00;102016.69;5009879;28;20052;-92
2021/12/12 06:47:02;;;;;;;57.58;14.95;;;;;;;5.39;100.00;102008.97;5008340;28;20038;-91
2021/12/12 06:50:11;;;;;;;58.53;14.60;;;;;;;5.44;100.00;102011.63;5033796;28;20033;-92
2021/12/12 06:53:06;;;;;;;64.38;16.10;;;;;;;5.39;100.00;101995.28;5011243;28;20421;-92
2021/12/12 07:05:42;;;;;;;;;;;;;;;;;;;;;
2021/12/12 07:08:28;;;;;;;62.45;16.02;;;;;;;5.57;100.00;101998.13;5034083;28;20033;-92
2021/12/12 07:11:19;;;;;;;;;;;;;;;;;;;;;
2021/12/12 07:14:42;;;;;;;61.65;15.25;;;;;;;5.61;100.00;101999.00;5003340;28;20037;-92
2021/12/12 07:17:33;;;;;;;67.50;15.75;;;;;;;5.63;100.00;102005.91;4991953;28;20566;-92
2021/12/12 07:20:11;;;;;;;61.63;15.80;;;;;;;5.67;100.00;102014.53;4968707;28;20027;-92
2021/12/12 07:23:33;;;;;;;74.03;17.05;;;;;;;5.69;100.00;102006.00;4975593;28;20084;-91
2021/12/12 07:26:04;;;;;;;60.83;15.30;;;;;;;5.63;100.00;101999.91;4992639;28;20042;-91
2021/12/12 07:29:17;;;;;;;;;;;;;;;;;;;;;
2021/12/12 07:32:23;;;;;;;61.05;15.93;;;;;;;5.74;100.00;101999.22;4990911;28;20502;-92
2021/12/12 07:35:48;;;;;;;73.53;17.95;;;;;;;5.81;100.00;102024.19;4986430;28;20033;-92
2021/12/12 07:45:45;;;;;;;70.00;15.98;;;;;;;5.83;100.00;102012.22;4926385;29;20250;-91
2021/12/12 07:48:45;;;;;;;66.28;15.82;;;;;;;5.81;100.00;102006.19;4908356;28;20040;-91
2021/12/12 07:52:02;;;;;;;74.88;17.27;;;;;;;5.88;100.00;102026.03;5040801;28;20087;-93
2021/12/12 07:54:37;;;;;;;71.05;17.13;;;;;;;5.89;100.00;102019.19;5034202;28;20028;-91
2021/12/12 07:58:04;;;;;;;;;;;;;;;6.05;100.00;102038.28;5049482;28;20307;-90
2021/12/12 08:00:01;;;;;;;;;;;;;;;6.05;100.00;102034.03;5034480;28;19912;-91
2021/12/12 08:02:40;;;;;;;74.20;16.17;;;;;;;6.04;100.00;102041.72;5053979;28;19916;-90
2021/12/12 08:05:29;;;;;;;68.72;16.83;;;;;;;6.02;100.00;102033.09;5046145;28;20504;-90
2021/12/12 08:08:20;;;;;;;;;;;;;;;;;;;;;
2021/12/12 08:11:07;;;;;;;70.63;16.40;;;;;;;6.07;100.00;102045.22;5048349;28;20032;-91
2021/12/12 08:21:03;;;;;;;87.00;18.15;;;;;;;6.14;100.00;102053.88;4915004;28;20036;-91
2021/12/12 08:23:51;;;;;;;76.25;18.15;;;;;;;6.26;100.00;102074.63;5026680;28;20033;-91
2021/12/12 08:26:43;;;;;;;75.78;17.55;;;;;;;6.27;100.00;102068.66;5040296;28;20056;-90
2021/12/12 08:29:20;;;;;;;82.15;20.25;;;;;;;6.31;100.00;102083.28;5033657;28;20040;-90
2021/12/12 08:32:02;;;;;;;92.75;20.15;;;;;;;6.33;100.00;102082.47;5036612;28;20029;-91
2021/12/12 08:34:47;;;;;;;81.35;20.27;;;;;;;6.25;100.00;102067.75;5059942;28;20036;-90
2021/12/12 08:37:22;;;;;;;82.90;19.65;;;;;;;6.31;100.00;102070.41;5047817;28;20075;-92
2021/12/12 08:40:28;;;;;;;76.68;19.10;;;;;;;6.35;100.00;102085.91;5046065;28;20032;-91
2021/12/12 08:43:09;;;;;;;77.75;18.45;;;;;;;6.44;100.00;102089.47;5047439;28;20048;-92
2021/12/12 08:45:45;;;;;;;76.97;19.15;;;;;;;6.42;100.00;102073.97;5030141;28;20017;-92
2021/12/12 08:48:19;;;;;;;83.63;18.75;;;;;;;6.43;100.00;102073.13;5040711;28;20029;-91
2021/12/12 08:50:59;;;;;;;75.70;18.42;;;;;;;6.50;100.00;102081.81;5027147;28;20048;-89
2021/12/12 08:54:12;;;;;;;74.03;17.48;;;;;;;6.51;100.00;102075.81;5031350;28;20060;-89
2021/12/12 08:57:03;;;;;;;87.95;18.30;;;;;;;6.57;100.00;102084.47;5053794;28;20033;-89
2021/12/12 08:59:53;;;;;;;80.63;20.45;;;;;;;6.55;100.00;102093.06;5037937;28;20037;-90
2021/12/12 09:02:42;;;;;;;80.43;18.02;;;;;;;6.56;100.00;102084.47;5054467;28;20041;-90
2021/12/12 09:05:32;;;;;;;74.90;18.38;;;;;;;6.58;100.00;102087.94;5040795;28;20094;-90
2021/12/12 09:11:50;;;;;;;72.40;18.70;;;;;;;6.68;100.00;102092.38;5063604;28;20043;-89
2021/12/12 09:15:01;;;;;;;77.90;19.02;;;;;;;6.78;100.00;102108.78;5041790;28;20194;-90
2021/12/12 09:18:03;;;;;;;74.47;18.38;;;;;;;6.81;100.00;102111.41;5043011;28;20045;-90
2021/12/12 09:24:05;;;;;;;81.68;18.05;;;;;;;6.74;100.00;102113.91;5058560;28;20512;-90
2021/12/12 09:26:47;;;;;;;80.40;18.25;;;;;;;6.74;100.00;102110.47;5051835;28;20448;-89
2021/12/12 09:29:29;;;;;;;72.65;17.92;;;;;;;6.79;100.00;102116.53;5045708;28;20033;-90
2021/12/12 09:32:29;;;;;;;84.05;18.85;;;;;;;6.78;100.00;102124.25;5020407;28;20135;-90
2021/12/12 09:35:12;;;;;;;72.40;17.33;;;;;;;6.90;100.00;102143.28;5047523;28;20025;-89
2021/12/12 09:38:30;;;;;;;;;;;;;;;;;;;;;
2021/12/12 09:41:42;;;;;;;72.80;17.45;;;;;;;6.95;100.00;102140.78;5045173;28;20052;-90
2021/12/12 09:44:48;;;;;;;72.15;17.42;;;;;;;6.99;100.00;102145.13;5031174;28;20122;-90
2021/12/12 09:55:11;;;;;;;76.80;17.70;;;;;;;6.98;100.00;102133.94;5053087;28;20068;-91
2021/12/12 09:58:24;;;;;;;67.03;16.20;;;;;;;7.10;100.00;102148.69;4979930;28;20117;-93
2021/12/12 10:01:35;;;;;;;;;;;;;;;;;;;;;
2021/12/12 10:04:41;;;;;;;75.75;17.58;;;;;;;7.22;100.00;102145.41;4971635;28;20664;-92
2021/12/12 10:07:34;;;;;;;71.07;19.10;;;;;;;7.23;100.00;102148.00;4957991;28;20031;-93
2021/12/12 10:10:41;;;;;;;82.40;19.23;;;;;;;7.19;100.00;102132.47;4952012;28;20023;-94
2021/12/12 10:13:48;;;;;;;68.32;17.17;;;;;;;7.20;100.00;102127.31;4941754;28;20111;-92
2021/12/12 10:16:52;;;;;;;74.00;18.05;;;;;;;7.34;100.00;102145.53;4951874;28;20043;-91
2021/12/12 10:19:42;;;;;;;69.00;16.83;;;;;;;7.34;100.00;102137.78;4977395;28;20045;-91
2021/12/12 10:22:55;;;;;;;80.55;18.63;;;;;;;7.36;100.00;102141.25;5040701;28;20056;-91
2021/12/12 10:25:56;;;;;;;78.90;16.85;;;;;;;7.30;100.00;102129.13;5007329;28;20038;-91
2021/12/12 10:29:06;;;;;;;66.45;17.80;;;;;;;7.41;100.00;102137.88;5024656;28;20041;-92
2021/12/12 10:32:22;;;;;;;;;;;;;;;;;;;;;
2021/12/12 10:35:25;;;;;;;73.60;16.80;;;;;;;7.48;100.00;102142.22;5025310;28;20410;-91
2021/12/12 10:38:30;;;;;;;68.97;18.40;;;;;;;7.51;100.00;102139.66;5016639;28;20493;-92
2021/12/12 10:41:28;;;;;;;67.60;16.92;;;;;;;7.53;100.00;102144.84;5020068;28;20502;-91
2021/12/12 10:44:17;;;;;;;76.18;18.75;;;;;;;7.44;100.00;102132.72;5013976;28;20072;-91
2021/12/12 10:50:19;;;;;;;63.75;15.82;;;;;;;7.60;100.00;102156.09;5010514;28;20518;-91
2021/12/12 10:53:27;;;;;;;69.93;17.08;;;;;;;7.61;100.00;102145.78;5025437;28;20025;-91
2021/12/12 10:56:57;;;;;;;70.78;17.42;;;;;;;7.60;100.00;102140.59;5038307;28;20021;-91
2021/12/12 11:00:03;;;;;;;69.95;17.13;;;;;;;7.59;100.00;102133.72;4963690;28;20045;-90
2021/12/12 11:03:16;;;;;;;69.05;16.50;;;;;;;7.66;100.00;102135.50;5009633;28;20037;-91
2021/12/12 11:06:07;;;;;;;65.28;15.60;;;;;;;7.73;100.00;102138.16;5030345;28;20037;-92
2021/12/12 11:12:44;;;;;;;70.10;17.42;;;;;;;7.88;100.00;102140.88;4966868;28;20086;-92
2021/12/12 11:16:01;;;;;;;67.70;18.00;;;;;;;7.93;100.00;102140.91;4987411;28;20092;-91
2021/12/12 11:18:49;;;;;;;70.88;18.05;;;;;;;7.87;100.00;102118.47;4936763;28;20057;-96
2021/12/12 11:21:29;;;;;;;68.65;18.00;;;;;;;7.91;100.00;102130.56;5006128;28;20124;-96
2021/12/12 11:24:14;;;;;;;60.50;16.80;;;;;;;8.01;100.00;102146.13;5030043;28;20466;-95
2021/12/12 11:26:54;;;;;;;68.10;18.02;;;;;;;7.94;100.00;102132.31;5016031;28;20056;-96
2021/12/12 11:29:44;;;;;;;70.68;17.02;;;;;;;7.91;100.00;102119.41;5011412;28;20070;-96
2021/12/12 11:32:50;;;;;;;66.93;18.15;;;;;;;8.02;100.00;102138.41;5009749;28;20030;-95
2021/12/12 11:35:31;;;;;;;66.95;17.50;;;;;;;7.96;100.00;102129.75;5011530;28;20052;-95
2021/12/12 11:38:28;;;;;;;59.70;16.60;;;;;;;8.04;100.00;102147.03;5011548;28;20056;-96
2021/12/12 11:41:07;;;;;;;56.90;16.52;;;;;;;7.96;100.00;102132.31;5011423;28;20043;-95
2021/12/12 11:50:38;;;;;;;56.30;16.38;;;;;;;8.12;100.00;102132.44;5036681;28;20029;-92
2021/12/12 11:53:06;;;;;;;;;;;;;;;8.22;100.00;102152.31;4927943;29;20052;-91
2021/12/12 11:55:46;;;;;;;52.17;14.95;;;;;;;8.14;100.00;102142.78;4934652;29;19914;-92
2021/12/12 11:58:39;;;;;;;56.47;16.10;;;;;;;8.10;100.00;102141.91;4928910;29;20051;-91
2021/12/12 12:02:06;;;;;;;53.97;15.70;;;;;;;8.02;100.00;102130.66;5010347;28;20037;-91
2021/12/12 12:05:15;;;;;;;54.58;15.90;;;;;;;8.10;100.00;102143.63;4959370;28;20038;-92
2021/12/12 12:08:15;;;;;;;58.60;15.40;;;;;;;8.12;100.00;102144.50;5009306;28;20474;-93
2021/12/12 12:10:58;;;;;;;52.55;15.27;;;;;;;8.13;100.00;102143.63;5007678;28;20029;-91
2021/12/12 12:13:53;;;;;;;59.22;16.45;;;;;;;8.17;100.00;102142.81;5016452;28;20034;-92
2021/12/12 12:16:41;;;;;;;54.95;15.50;;;;;;;8.16;100.00;102143.66;5013125;28;20064;-91
2021/12/12 12:19:55;;;;;;;58.97;16.20;;;;;;;8.11;100.00;102142.78;5029596;28;20512;-91
2021/12/12 12:22:45;;;;;;;51.45;14.55;;;;;;;8.12;100.00;102150.50;4990094;28;20090;-92
2021/12/12 12:28:46;;;;;;;55.35;16.48;;;;;;;8.24;100.00;102165.25;4983558;28;20040;-90
2021/12/12 12:31:34;;;;;;;55.65;16.98;;;;;;;8.26;100.00;102166.09;5021627;28;20253;-91
2021/12/12 12:35:07;;;;;;;59.95;16.02;;;;;;;8.33;100.00;102170.50;5019651;28;20052;-91
2021/12/12 12:38:10;;;;;;;53.13;15.77;;;;;;;8.33;100.00;102170.50;5005046;28;20128;-92
2021/12/12 12:41:32;;;;;;;56.88;16.23;;;;;;;8.36;100.00;102161.91;5036348;28;20034;-91
2021/12/12 12:44:51;;;;;;;50.65;14.73;;;;;;;8.40;100.00;102159.34;5019176;28;20020;-91
2021/12/12 12:47:42;;;;;;;47.65;15.48;;;;;;;8.45;100.00;102159.41;5014173;28;20494;-91
2021/12/12 12:50:42;;;;;;;61.13;16.30;;;;;;;8.47;100.00;102168.00;5026509;28;20268;-92
2021/12/12 12:53:38;;;;;;;65.57;17.42;;;;;;;8.46;100.00;102169.72;5011988;28;20099;-93
2021/12/12 12:56:49;;;;;;;54.65;15.95;;;;;;;8.50;100.00;102165.44;5016295;28;20120;-91
2021/12/12 12:59:29;;;;;;;53.40;15.85;;;;;;;8.50;100.00;102173.19;5016124;28;20045;-91
2021/12/12 13:02:17;;;;;;;55.53;16.73;;;;;;;8.49;100.00;102167.16;5028563;28;20483;-90
2021/12/12 13:05:20;;;;;;;57.08;16.13;;;;;;;8.54;100.00;102170.63;5026505;28;20522;-90
2021/12/12 13:08:27;;;;;;;61.03;17.42;;;;;;;8.60;100.00;102170.66;5014319;28;20557;-89
2021/12/12 13:11:01;;;;;;;53.30;16.08;;;;;;;8.55;100.00;102164.63;5034656;28;20716;-91
2021/12/12 13:13:31;;;;;;;57.97;17.80;;;;;;;8.56;100.00;102163.75;5043946;28;20033;-90
2021/12/12 13:16:42;;;;;;;63.15;16.90;;;;;;;8.55;100.00;102153.41;5038897;28;20384;-90
2021/12/12 13:19:42;;;;;;;52.67;15.65;;;;;;;8.59;100.00;102176.72;4984418;28;20052;-90
2021/12/12 13:22:40;;;;;;;56.83;15.40;;;;;;;8.58;100.00;102169.81;5043346;28;20465;-91
2021/12/12 13:25:14;;;;;;;58.13;15.80;;;;;;;8.59;100.00;102171.53;5020333;28;20039;-90
2021/12/12 13:28:20;;;;;;;58.97;16.30;;;;;;;8.64;100.00;102172.44;5035022;28;20048;-91
2021/12/12 13:31:20;;;;;;;58.13;16.13;;;;;;;8.56;100.00;102173.22;4989595;28;20040;-90
2021/12/12 13:34:10;;;;;;;58.50;17.15;;;;;;;8.67;100.00;102175.00;5033627;28;20021;-90
2021/12/12 13:37:18;;;;;;;58.20;16.10;;;;;;;8.70;100.00;102187.97;5032285;28;20074;-91
2021/12/12 13:40:10;;;;;;;59.42;16.17;;;;;;;8.73;100.00;102190.56;5046998;28;20037;-91
2021/12/12 13:43:15;;;;;;;61.17;18.45;;;;;;;8.72;100.00;102193.16;5035059;28;20025;-91
2021/12/12 13:46:18;;;;;;;59.88;16.88;;;;;;;8.62;100.00;102179.31;5060617;28;20036;-90
2021/12/12 13:48:53;;;;;;;68.97;19.13;;;;;;;8.63;100.00;102190.50;5048406;28;20398;-91
2021/12/12 13:51:38;;;;;;;61.72;17.50;;;;;;;8.67;100.00;102203.44;5046403;28;20031;-91
2021/12/12 13:57:47;;;;;;;58.80;15.80;;;;;;;8.63;100.00;102199.13;5035474;28;20221;-90
2021/12/12 14:00:50;;;;;;;57.60;17.42;;;;;;;8.51;100.00;102177.53;5025895;28;20032;-91
2021/12/12 14:03:48;;;;;;;60.28;16.80;;;;;;;8.51;100.00;102186.13;5035213;28;20120;-91
2021/12/12 14:06:39;;;;;;;;;;;;;;;;;;;;;
2021/12/12 14:09:16;;;;;;;62.58;16.95;;;;;;;8.60;100.00;102214.59;5050128;28;20043;-90
2021/12/12 14:12:08;;;;;;;62.15;16.48;;;;;;;8.63;100.00;102204.31;5049443;28;20037;-92
2021/12/12 14:15:14;;;;;;;60.38;16.23;;;;;;;8.62;100.00;102205.16;5033371;28;20029;-91
2021/12/12 14:18:15;;;;;;;55.00;15.98;;;;;;;8.65;100.00;102209.47;5029153;28;20474;-92
2021/12/12 14:21:12;;;;;;;;;;;;;;;;;;;;;
2021/12/12 14:23:46;;;;;;;56.08;15.88;;;;;;;8.55;100.00;102202.50;5058363;28;20032;-91
2021/12/12 14:26:24;;;;;;;59.00;17.02;;;;;;;8.60;100.00;102214.59;5039674;28;20040;-91
2021/12/12 14:29:13;;;;;;;;;;;;;;;;;;;;;
2021/12/12 14:31:53;;;;;;;60.15;17.75;;;;;;;8.55;100.00;102211.13;5058570;28;20029;-90
2021/12/12 14:34:45;;;;;;;58.90;16.80;;;;;;;8.53;100.00;102209.41;5062894;28;20108;-93
2021/12/12 14:37:30;;;;;;;60.45;17.08;;;;;;;8.58;100.00;102216.34;5038642;28;20098;-92
2021/12/12 14:40:20;;;;;;;62.38;17.17;;;;;;;8.64;100.00;102228.44;5039334;28;20056;-91
2021/12/12 14:43:04;;;;;;;60.70;17.45;;;;;;;8.55;100.00;102215.44;5048555;28;20029;-90
2021/12/12 14:45:53;;;;;;;65.03;17.30;;;;;;;8.62;100.00;102227.53;5050388;28;20047;-91
2021/12/12 14:48:46;;;;;;;62.75;17.05;;;;;;;8.64;100.00;102231.00;5033664;28;20048;-91
2021/12/12 14:51:24;;;;;;;68.15;18.23;;;;;;;8.61;100.00;102234.44;5052688;28;20037;-91
2021/12/12 14:57:25;;;;;;;;;;;;;;;;;;;;;
2021/12/12 15:04:14;;;;;;;62.85;17.27;;;;;;;8.54;100.00;102234.38;5045631;28;20515;-91
2021/12/12 15:07:11;;;;;;;67.82;18.25;;;;;;;8.54;100.00;102231.78;5019977;28;20564;-92
2021/12/12 15:10:00;;;;;;;;;;;;;;;;;;;;;
2021/12/12 15:12:57;;;;;;;76.45;19.95;;;;;;;8.55;100.00;102244.72;5058430;28;20024;-91
2021/12/12 15:15:36;;;;;;;74.32;19.30;;;;;;;8.61;100.00;102260.28;5032733;28;20107;-91
2021/12/12 15:18:16;;;;;;;70.00;20.33;;;;;;;8.51;100.00;102237.81;5022812;28;20430;-90
2021/12/12 15:20:55;;;;;;;76.40;20.27;;;;;;;8.62;100.00;102263.72;5044409;28;20116;-90
2021/12/12 15:23:25;;;;;;;82.50;21.52;;;;;;;8.58;100.00;102254.22;5029602;28;20063;-89
2021/12/12 15:26:20;;;;;;;79.53;20.65;;;;;;;8.57;100.00;102253.38;5048596;28;20120;-91
2021/12/12 15:28:49;;;;;;;70.45;18.95;;;;;;;8.55;100.00;102244.72;5024158;28;20112;-90
2021/12/12 15:31:41;;;;;;;68.80;18.50;;;;;;;8.64;100.00;102270.66;5046907;28;20453;-90
2021/12/12 15:34:23;;;;;;;68.15;19.35;;;;;;;8.57;100.00;102255.94;5029704;28;20016;-90
2021/12/12 15:36:57;;;;;;;75.70;20.02;;;;;;;8.64;100.00;102278.41;5027967;28;20496;-90
2021/12/12 15:39:34;;;;;;;75.97;19.85;;;;;;;8.58;100.00;102268.03;5037371;28;20020;-90
2021/12/12 15:42:07;;;;;;;75.50;20.02;;;;;;;8.59;100.00;102261.13;5047386;28;20039;-91
2021/12/12 15:44:38;;;;;;;81.03;19.80;;;;;;;8.62;100.00;102268.91;5048851;28;20027;-90
2021/12/12 15:47:13;;;;;;;80.93;20.17;;;;;;;8.63;100.00;102266.34;5046951;28;20029;-90
2021/12/12 15:49:55;;;;;;;76.53;19.40;;;;;;;8.64;100.00;102269.78;5047639;28;20063;-90
2021/12/12 15:52:39;;;;;;;78.40;19.98;;;;;;;8.61;100.00;102264.56;5037922;28;20410;-90
2021/12/12 15:55:36;;;;;;;75.85;19.55;;;;;;;8.65;100.00;102267.22;5047960;28;20025;-91
2021/12/12 15:58:36;;;;;;;75.93;20.55;;;;;;;8.64;100.00;102281.00;5025956;28;20060;-91
2021/12/12 16:01:12;;;;;;;80.68;19.33;;;;;;;8.64;100.00;102277.53;5028548;28;20044;-90
2021/12/12 16:03:52;;;;;;;87.18;22.25;;;;;;;8.64;100.00;102273.22;5032273;28;20557;-90
2021/12/12 16:06:40;;;;;;;84.78;21.73;;;;;;;8.71;100.00;102289.66;5033027;28;20068;-90
2021/12/12 16:09:20;;;;;;;83.55;21.23;;;;;;;8.71;100.00;102292.25;5031031;28;20111;-90
2021/12/12 16:11:56;;;;;;;78.95;20.98;;;;;;;8.67;100.00;102282.72;5043042;28;20037;-90
2021/12/12 16:14:37;;;;;;;81.38;20.45;;;;;;;8.70;100.00;102291.38;5050886;28;20030;-91
2021/12/12 16:17:13;;;;;;;85.22;22.25;;;;;;;8.64;100.00;102275.81;5023619;28;20046;-91
2021/12/12 16:19:40;;;;;;;88.90;21.92;;;;;;;8.67;100.00;102286.16;5032505;28;20281;-90
2021/12/12 16:22:24;;;;;;;87.68;21.35;;;;;;;8.63;100.00;102284.41;5038395;28;20032;-90
2021/12/12 16:25:09;;;;;;;98.27;23.67;;;;;;;8.69;100.00;102299.09;5040075;28;20037;-90
2021/12/12 16:27:39;;;;;;;101.88;23.60;;;;;;;8.65;100.00;102287.91;5033569;28;20294;-91
2021/12/12 16:30:24;;;;;;;133.73;29.73;;;;;;;8.70;100.00;102295.69;5012227;28;20028;-91
2021/12/12 16:33:30;;;;;;;132.52;30.23;;;;;;;8.68;100.00;102287.91;5012470;28;20120;-90
2021/12/12 16:36:54;;;;;;;115.68;26.83;;;;;;;8.71;100.00;102297.41;4996059;28;20041;-90
2021/12/12 16:39:44;;;;;;;117.13;25.55;;;;;;;8.79;100.00;102300.91;4994201;28;20037;-91
2021/12/12 16:42:23;;;;;;;128.70;28.20;;;;;;;8.70;100.00;102287.91;5012363;28;20025;-90
2021/12/12 16:45:06;;;;;;;145.98;27.40;;;;;;;8.72;100.00;102301.72;5016681;28;20052;-91
2021/12/12 16:47:44;;;;;;;136.68;28.73;;;;;;;8.68;100.00;102293.06;5034823;28;20501;-90
2021/12/12 16:50:20;;;;;;;145.10;28.73;;;;;;;8.76;100.00;102300.88;5023986;28;20060;-90
2021/12/12 16:52:50;;;;;;;165.02;30.63;;;;;;;8.76;100.00;102315.53;5017792;28;20067;-91
2021/12/12 16:55:20;;;;;;;175.45;32.55;;;;;;;8.75;100.00;102306.03;5011006;28;20033;-90
2021/12/12 16:58:00;;;;;;;194.35;34.20;;;;;;;8.75;100.00;102303.44;5018443;28;20049;-91
2021/12/12 17:00:38;;;;;;;189.98;33.05;;;;;;;8.83;100.00;102322.47;5036482;28;20394;-91
2021/12/12 17:03:09;;;;;;;209.55;34.88;;;;;;;8.80;100.00;102314.72;5024165;28;20040;-91
2021/12/12 17:05:41;;;;;;;213.05;36.92;;;;;;;8.79;100.00;102300.91;5013366;28;20025;-90
2021/12/12 17:08:46;;;;;;;215.10;37.03;;;;;;;8.80;100.00;102304.38;5017015;28;20061;-90
2021/12/12 17:11:36;;;;;;;201.30;36.35;;;;;;;8.81;100.00;102298.31;5037143;28;20608;-91
2021/12/12 17:14:12;;;;;;;202.50;36.83;;;;;;;8.84;100.00;102300.94;5019088;28;20436;-91
2021/12/12 17:16:42;;;;;;;215.02;36.05;;;;;;;8.85;100.00;102295.78;5042047;28;20080;-91
2021/12/12 17:19:15;;;;;;;215.27;36.78;;;;;;;8.90;100.00;102307.03;5045560;28;20032;-90
2021/12/12 17:21:51;;;;;;;208.27;35.17;;;;;;;8.89;100.00;102310.44;5039177;28;20143;-91
2021/12/12 17:24:20;;;;;;;213.73;35.95;;;;;;;8.93;100.00;102308.78;5051811;28;20103;-91
2021/12/12 17:26:48;;;;;;;237.95;37.88;;;;;;;8.98;100.00;102320.00;5036318;28;20025;-91
2021/12/12 17:29:24;;;;;;;234.63;38.35;;;;;;;8.95;100.00;102312.22;5046403;28;20036;-90
2021/12/12 17:31:56;;;;;;;239.77;38.72;;;;;;;9.05;100.00;102334.72;5051919;28;20084;-90
2021/12/12 17:34:32;;;;;;;214.80;35.75;;;;;;;9.01;100.00;102317.41;5037843;28;20029;-90
2021/12/12 17:37:25;;;;;;;231.65;36.67;;;;;;;9.05;100.00;102330.41;5029118;28;20029;-90
2021/12/12 17:40:01;;;;;;;219.90;36.97;;;;;;;9.07;100.00;102325.25;5044760;28;20029;-90
2021/12/12 17:42:53;;;;;;;218.18;35.20;;;;;;;9.09;100.00;102332.13;5037010;28;20482;-90
2021/12/12 17:45:19;;;;;;;203.30;35.70;;;;;;;9.10;100.00;102335.59;5049652;28;20028;-90
2021/12/12 17:48:22;;;;;;;215.88;37.88;;;;;;;9.11;100.00;102345.94;5050104;28;20024;-90